sensor_id;sensor_type;location;lat;lon;timestamp;P1;durP1;ratioP1;P2;durP2;ratioP2
68870;SDS011;55906;52.278;6.808;2023-04-03T00:00:37;6.05;;;3.53;;
68870;SDS011;55906;52.278;6.808;2023-04-03T00:03:04;5.53;;;3.60;;
68870;SDS011;55906;52.278;6.808;2023-04-03T00:05:31;7.50;;;3.40;;
68870;SDS011;55906;52.278;6.808;2023-04-03T00:07:58;7.25;;;3.40;;
68870;SDS011;55906;52.278;6.808;2023-04-03T00:10:25;6.40;;;3.67;;
68870;SDS011;55906;52.278;6.808;2023-04-03T00:12:52;4.88;;;3.40;;
68870;SDS011;55906;52.278;6.808;2023-04-03T00:15:19;4.85;;;3.38;;
68870;SDS011;55906;52.278;6.808;2023-04-03T00:17:47;6.70;;;4.28;;
68870;SDS011;55906;52.278;6.808;2023-04-03T00:20:13;6.35;;;4.03;;
68870;SDS011;55906;52.278;6.808;2023-04-03T00:22:40;6.57;;;3.40;;
68870;SDS011;55906;52.278;6.808;2023-04-03T00:25:07;5.85;;;3.63;;
68870;SDS011;55906;52.278;6.808;2023-04-03T00:27:35;6.57;;;4.00;;
68870;SDS011;55906;52.278;6.808;2023-04-03T00:30:03;4.57;;;3.38;;
68870;SDS011;55906;52.278;6.808;2023-04-03T00:32:30;8.63;;;4.10;;
68870;SDS011;55906;52.278;6.808;2023-04-03T00:34:58;4.80;;;3.70;;
68870;SDS011;55906;52.278;6.808;2023-04-03T00:37:25;6.57;;;3.80;;
68870;SDS011;55906;52.278;6.808;2023-04-03T00:39:51;9.73;;;4.38;;
68870;SDS011;55906;52.278;6.808;2023-04-03T00:42:18;7.90;;;4.28;;
68870;SDS011;55906;52.278;6.808;2023-04-03T00:47:49;6.00;;;3.63;;
68870;SDS011;55906;52.278;6.808;2023-04-03T00:50:17;6.85;;;3.55;;
68870;SDS011;55906;52.278;6.808;2023-04-03T00:52:44;4.90;;;3.40;;
68870;SDS011;55906;52.278;6.808;2023-04-03T00:55:14;6.43;;;4.05;;
68870;SDS011;55906;52.278;6.808;2023-04-03T00:57:41;5.15;;;3.70;;
68870;SDS011;55906;52.278;6.808;2023-04-03T01:00:09;7.30;;;3.90;;
68870;SDS011;55906;52.278;6.808;2023-04-03T01:02:38;6.10;;;3.90;;
68870;SDS011;55906;52.278;6.808;2023-04-03T01:05:06;4.97;;;3.83;;
68870;SDS011;55906;52.278;6.808;2023-04-03T01:07:35;7.20;;;4.10;;
68870;SDS011;55906;52.278;6.808;2023-04-03T01:10:03;8.30;;;4.05;;
68870;SDS011;55906;52.278;6.808;2023-04-03T01:12:33;5.15;;;3.65;;
68870;SDS011;55906;52.278;6.808;2023-04-03T01:15:04;7.25;;;4.40;;
68870;SDS011;55906;52.278;6.808;2023-04-03T01:17:34;5.97;;;3.97;;
68870;SDS011;55906;52.278;6.808;2023-04-03T01:20:09;6.63;;;4.15;;
68870;SDS011;55906;52.278;6.808;2023-04-03T01:22:56;5.93;;;4.63;;
68870;SDS011;55906;52.278;6.808;2023-04-03T01:25:27;7.37;;;3.70;;
68870;SDS011;55906;52.278;6.808;2023-04-03T01:27:54;6.20;;;3.60;;
68870;SDS011;55906;52.278;6.808;2023-04-03T01:30:22;6.53;;;3.78;;
68870;SDS011;55906;52.278;6.808;2023-04-03T01:32:55;6.40;;;3.85;;
68870;SDS011;55906;52.278;6.808;2023-04-03T01:35:22;9.20;;;4.07;;
68870;SDS011;55906;52.278;6.808;2023-04-03T01:37:49;6.47;;;4.07;;
68870;SDS011;55906;52.278;6.808;2023-04-03T01:40:15;5.82;;;3.92;;
68870;SDS011;55906;52.278;6.808;2023-04-03T01:42:42;7.63;;;3.97;;
68870;SDS011;55906;52.278;6.808;2023-04-03T01:45:09;5.32;;;3.70;;
68870;SDS011;55906;52.278;6.808;2023-04-03T01:47:36;5.40;;;3.40;;
68870;SDS011;55906;52.278;6.808;2023-04-03T01:50:04;6.67;;;3.90;;
68870;SDS011;55906;52.278;6.808;2023-04-03T01:52:31;5.30;;;3.67;;
68870;SDS011;55906;52.278;6.808;2023-04-03T01:54:58;5.53;;;3.85;;
68870;SDS011;55906;52.278;6.808;2023-04-03T01:57:24;5.40;;;3.80;;
68870;SDS011;55906;52.278;6.808;2023-04-03T01:59:51;7.47;;;3.53;;
68870;SDS011;55906;52.278;6.808;2023-04-03T02:02:18;6.68;;;4.03;;
68870;SDS011;55906;52.278;6.808;2023-04-03T02:04:45;6.70;;;3.80;;
68870;SDS011;55906;52.278;6.808;2023-04-03T02:07:13;5.17;;;3.20;;
68870;SDS011;55906;52.278;6.808;2023-04-03T02:09:39;5.20;;;3.85;;
68870;SDS011;55906;52.278;6.808;2023-04-03T02:12:06;6.93;;;3.40;;
68870;SDS011;55906;52.278;6.808;2023-04-03T02:14:33;6.90;;;3.80;;
68870;SDS011;55906;52.278;6.808;2023-04-03T02:17:00;5.38;;;3.70;;
68870;SDS011;55906;52.278;6.808;2023-04-03T02:19:29;5.45;;;3.55;;
68870;SDS011;55906;52.278;6.808;2023-04-03T02:21:56;6.28;;;3.70;;
68870;SDS011;55906;52.278;6.808;2023-04-03T02:24:24;6.10;;;3.67;;
68870;SDS011;55906;52.278;6.808;2023-04-03T02:26:51;6.75;;;3.78;;
68870;SDS011;55906;52.278;6.808;2023-04-03T02:29:18;5.15;;;3.45;;
68870;SDS011;55906;52.278;6.808;2023-04-03T02:31:44;7.87;;;4.23;;
68870;SDS011;55906;52.278;6.808;2023-04-03T02:34:11;6.30;;;3.60;;
68870;SDS011;55906;52.278;6.808;2023-04-03T02:36:38;7.60;;;4.03;;
68870;SDS011;55906;52.278;6.808;2023-04-03T02:39:04;6.37;;;3.80;;
68870;SDS011;55906;52.278;6.808;2023-04-03T02:41:32;5.53;;;3.95;;
68870;SDS011;55906;52.278;6.808;2023-04-03T02:44:00;5.57;;;4.00;;
68870;SDS011;55906;52.278;6.808;2023-04-03T02:46:27;4.93;;;3.72;;
68870;SDS011;55906;52.278;6.808;2023-04-03T02:48:54;5.97;;;4.35;;
68870;SDS011;55906;52.278;6.808;2023-04-03T02:51:21;8.70;;;4.10;;
68870;SDS011;55906;52.278;6.808;2023-04-03T02:53:48;6.78;;;4.43;;
68870;SDS011;55906;52.278;6.808;2023-04-03T02:56:15;7.57;;;4.50;;
68870;SDS011;55906;52.278;6.808;2023-04-03T02:58:44;6.00;;;4.15;;
68870;SDS011;55906;52.278;6.808;2023-04-03T03:01:11;5.07;;;3.83;;
68870;SDS011;55906;52.278;6.808;2023-04-03T03:03:38;6.77;;;3.87;;
68870;SDS011;55906;52.278;6.808;2023-04-03T03:06:05;8.07;;;4.10;;
68870;SDS011;55906;52.278;6.808;2023-04-03T03:08:34;6.95;;;4.03;;
68870;SDS011;55906;52.278;6.808;2023-04-03T03:11:01;6.55;;;4.13;;
68870;SDS011;55906;52.278;6.808;2023-04-03T03:15:56;8.77;;;4.50;;
68870;SDS011;55906;52.278;6.808;2023-04-03T03:18:23;6.80;;;4.05;;
68870;SDS011;55906;52.278;6.808;2023-04-03T03:20:51;6.83;;;3.90;;
68870;SDS011;55906;52.278;6.808;2023-04-03T03:23:18;5.80;;;3.65;;
68870;SDS011;55906;52.278;6.808;2023-04-03T03:25:45;7.38;;;4.70;;
68870;SDS011;55906;52.278;6.808;2023-04-03T03:28:11;6.37;;;4.17;;
68870;SDS011;55906;52.278;6.808;2023-04-03T03:30:38;6.10;;;4.00;;
68870;SDS011;55906;52.278;6.808;2023-04-03T03:33:06;8.40;;;4.60;;
68870;SDS011;55906;52.278;6.808;2023-04-03T03:35:33;7.80;;;4.07;;
68870;SDS011;55906;52.278;6.808;2023-04-03T03:37:59;6.75;;;4.10;;
68870;SDS011;55906;52.278;6.808;2023-04-03T03:40:26;5.10;;;4.20;;
68870;SDS011;55906;52.278;6.808;2023-04-03T03:42:53;4.88;;;3.80;;
68870;SDS011;55906;52.278;6.808;2023-04-03T03:45:19;5.27;;;3.37;;
68870;SDS011;55906;52.278;6.808;2023-04-03T03:47:46;7.03;;;4.07;;
68870;SDS011;55906;52.278;6.808;2023-04-03T03:50:15;8.07;;;4.05;;
68870;SDS011;55906;52.278;6.808;2023-04-03T03:52:41;5.33;;;3.67;;
68870;SDS011;55906;52.278;6.808;2023-04-03T03:55:08;5.68;;;3.58;;
68870;SDS011;55906;52.278;6.808;2023-04-03T03:57:35;7.20;;;3.90;;
68870;SDS011;55906;52.278;6.808;2023-04-03T04:00:02;5.10;;;3.97;;
68870;SDS011;55906;52.278;6.808;2023-04-03T04:02:29;6.65;;;4.40;;
68870;SDS011;55906;52.278;6.808;2023-04-03T04:04:56;7.20;;;4.20;;
68870;SDS011;55906;52.278;6.808;2023-04-03T04:07:24;5.90;;;3.65;;
68870;SDS011;55906;52.278;6.808;2023-04-03T04:09:53;6.20;;;3.43;;
68870;SDS011;55906;52.278;6.808;2023-04-03T04:12:19;5.70;;;4.20;;
68870;SDS011;55906;52.278;6.808;2023-04-03T04:14:46;7.97;;;4.35;;
68870;SDS011;55906;52.278;6.808;2023-04-03T04:17:13;6.30;;;3.73;;
68870;SDS011;55906;52.278;6.808;2023-04-03T04:19:40;5.78;;;3.78;;
68870;SDS011;55906;52.278;6.808;2023-04-03T04:22:07;6.15;;;4.18;;
68870;SDS011;55906;52.278;6.808;2023-04-03T04:24:35;6.97;;;3.40;;
68870;SDS011;55906;52.278;6.808;2023-04-03T04:27:01;5.00;;;3.63;;
68870;SDS011;55906;52.278;6.808;2023-04-03T04:29:28;9.55;;;4.10;;
68870;SDS011;55906;52.278;6.808;2023-04-03T04:32:00;6.45;;;3.90;;
68870;SDS011;55906;52.278;6.808;2023-04-03T04:34:26;6.23;;;4.03;;
68870;SDS011;55906;52.278;6.808;2023-04-03T04:36:53;7.40;;;3.85;;
68870;SDS011;55906;52.278;6.808;2023-04-03T04:39:20;5.72;;;3.42;;
68870;SDS011;55906;52.278;6.808;2023-04-03T04:41:48;7.17;;;4.13;;
68870;SDS011;55906;52.278;6.808;2023-04-03T04:44:14;5.93;;;3.63;;
68870;SDS011;55906;52.278;6.808;2023-04-03T04:46:41;6.82;;;4.25;;
68870;SDS011;55906;52.278;6.808;2023-04-03T04:49:07;8.65;;;4.20;;
68870;SDS011;55906;52.278;6.808;2023-04-03T04:51:34;6.32;;;3.88;;
68870;SDS011;55906;52.278;6.808;2023-04-03T04:54:01;7.43;;;4.30;;
68870;SDS011;55906;52.278;6.808;2023-04-03T04:56:27;5.60;;;4.03;;
68870;SDS011;55906;52.278;6.808;2023-04-03T04:58:55;9.60;;;4.00;;
68870;SDS011;55906;52.278;6.808;2023-04-03T05:01:22;7.07;;;4.45;;
68870;SDS011;55906;52.278;6.808;2023-04-03T05:03:48;6.72;;;3.75;;
68870;SDS011;55906;52.278;6.808;2023-04-03T05:06:15;7.93;;;4.50;;
68870;SDS011;55906;52.278;6.808;2023-04-03T05:08:42;6.47;;;4.15;;
68870;SDS011;55906;52.278;6.808;2023-04-03T05:11:08;7.88;;;4.70;;
68870;SDS011;55906;52.278;6.808;2023-04-03T05:13:35;6.70;;;4.03;;
68870;SDS011;55906;52.278;6.808;2023-04-03T05:16:03;7.25;;;5.00;;
68870;SDS011;55906;52.278;6.808;2023-04-03T05:18:30;5.75;;;4.10;;
68870;SDS011;55906;52.278;6.808;2023-04-03T05:20:57;9.73;;;4.85;;
68870;SDS011;55906;52.278;6.808;2023-04-03T05:23:24;5.93;;;4.40;;
68870;SDS011;55906;52.278;6.808;2023-04-03T05:25:51;7.70;;;4.75;;
68870;SDS011;55906;52.278;6.808;2023-04-03T05:28:17;8.65;;;4.85;;
68870;SDS011;55906;52.278;6.808;2023-04-03T05:30:44;10.37;;;4.80;;
68870;SDS011;55906;52.278;6.808;2023-04-03T05:33:12;6.65;;;4.10;;
68870;SDS011;55906;52.278;6.808;2023-04-03T05:35:39;7.30;;;5.00;;
68870;SDS011;55906;52.278;6.808;2023-04-03T05:38:06;9.00;;;4.68;;
68870;SDS011;55906;52.278;6.808;2023-04-03T05:40:33;7.03;;;4.75;;
68870;SDS011;55906;52.278;6.808;2023-04-03T05:42:59;10.25;;;6.18;;
68870;SDS011;55906;52.278;6.808;2023-04-03T05:45:26;9.40;;;4.57;;
68870;SDS011;55906;52.278;6.808;2023-04-03T05:47:53;8.53;;;4.70;;
68870;SDS011;55906;52.278;6.808;2023-04-03T05:50:20;6.47;;;4.20;;
68870;SDS011;55906;52.278;6.808;2023-04-03T05:52:48;5.82;;;4.40;;
68870;SDS011;55906;52.278;6.808;2023-04-03T05:55:17;7.00;;;5.00;;
68870;SDS011;55906;52.278;6.808;2023-04-03T05:57:43;10.10;;;4.78;;
68870;SDS011;55906;52.278;6.808;2023-04-03T06:00:12;5.90;;;4.47;;
68870;SDS011;55906;52.278;6.808;2023-04-03T06:02:40;7.22;;;4.88;;
68870;SDS011;55906;52.278;6.808;2023-04-03T06:05:07;9.82;;;5.43;;
68870;SDS011;55906;52.278;6.808;2023-04-03T06:07:38;8.23;;;4.78;;
68870;SDS011;55906;52.278;6.808;2023-04-03T06:10:05;8.55;;;4.93;;
68870;SDS011;55906;52.278;6.808;2023-04-03T06:12:33;9.80;;;5.10;;
68870;SDS011;55906;52.278;6.808;2023-04-03T06:14:59;9.20;;;6.55;;
68870;SDS011;55906;52.278;6.808;2023-04-03T06:17:26;9.88;;;5.25;;
68870;SDS011;55906;52.278;6.808;2023-04-03T06:19:53;8.40;;;5.10;;
68870;SDS011;55906;52.278;6.808;2023-04-03T06:22:20;8.05;;;5.00;;
68870;SDS011;55906;52.278;6.808;2023-04-03T06:24:49;9.15;;;4.22;;
68870;SDS011;55906;52.278;6.808;2023-04-03T06:27:16;9.57;;;4.57;;
68870;SDS011;55906;52.278;6.808;2023-04-03T06:29:42;9.15;;;4.75;;
68870;SDS011;55906;52.278;6.808;2023-04-03T06:32:10;8.85;;;4.80;;
68870;SDS011;55906;52.278;6.808;2023-04-03T06:34:37;9.80;;;5.95;;
68870;SDS011;55906;52.278;6.808;2023-04-03T06:37:03;14.20;;;6.70;;
68870;SDS011;55906;52.278;6.808;2023-04-03T06:39:30;10.23;;;5.60;;
68870;SDS011;55906;52.278;6.808;2023-04-03T06:41:58;10.02;;;5.50;;
68870;SDS011;55906;52.278;6.808;2023-04-03T06:44:25;7.07;;;4.60;;
68870;SDS011;55906;52.278;6.808;2023-04-03T06:46:52;10.20;;;4.38;;
68870;SDS011;55906;52.278;6.808;2023-04-03T06:49:19;7.38;;;4.55;;
68870;SDS011;55906;52.278;6.808;2023-04-03T06:51:46;8.10;;;5.13;;
68870;SDS011;55906;52.278;6.808;2023-04-03T06:54:13;7.22;;;4.50;;
68870;SDS011;55906;52.278;6.808;2023-04-03T06:56:39;7.75;;;4.50;;
68870;SDS011;55906;52.278;6.808;2023-04-03T06:59:09;6.43;;;4.15;;
68870;SDS011;55906;52.278;6.808;2023-04-03T07:01:36;6.63;;;4.23;;
68870;SDS011;55906;52.278;6.808;2023-04-03T07:04:03;6.35;;;4.18;;
68870;SDS011;55906;52.278;6.808;2023-04-03T07:06:30;6.88;;;3.97;;
68870;SDS011;55906;52.278;6.808;2023-04-03T07:08:58;5.90;;;4.20;;
68870;SDS011;55906;52.278;6.808;2023-04-03T07:11:25;5.72;;;3.63;;
68870;SDS011;55906;52.278;6.808;2023-04-03T07:13:52;7.50;;;4.05;;
68870;SDS011;55906;52.278;6.808;2023-04-03T07:16:20;7.20;;;5.10;;
68870;SDS011;55906;52.278;6.808;2023-04-03T07:18:47;6.03;;;3.50;;
68870;SDS011;55906;52.278;6.808;2023-04-03T07:21:13;5.18;;;3.75;;
68870;SDS011;55906;52.278;6.808;2023-04-03T07:23:40;6.15;;;3.83;;
68870;SDS011;55906;52.278;6.808;2023-04-03T07:26:07;4.40;;;3.60;;
68870;SDS011;55906;52.278;6.808;2023-04-03T07:28:34;5.80;;;3.65;;
68870;SDS011;55906;52.278;6.808;2023-04-03T07:31:02;6.47;;;3.50;;
68870;SDS011;55906;52.278;6.808;2023-04-03T07:33:34;8.13;;;3.57;;
68870;SDS011;55906;52.278;6.808;2023-04-03T07:36:02;6.00;;;3.72;;
68870;SDS011;55906;52.278;6.808;2023-04-03T07:38:29;5.20;;;3.45;;
68870;SDS011;55906;52.278;6.808;2023-04-03T07:40:55;7.97;;;3.75;;
68870;SDS011;55906;52.278;6.808;2023-04-03T07:43:22;8.10;;;4.40;;
68870;SDS011;55906;52.278;6.808;2023-04-03T07:45:49;5.57;;;3.30;;
68870;SDS011;55906;52.278;6.808;2023-04-03T07:48:16;7.32;;;3.50;;
68870;SDS011;55906;52.278;6.808;2023-04-03T07:50:45;7.90;;;4.00;;
68870;SDS011;55906;52.278;6.808;2023-04-03T07:53:12;5.50;;;3.50;;
68870;SDS011;55906;52.278;6.808;2023-04-03T07:55:38;6.82;;;3.80;;
68870;SDS011;55906;52.278;6.808;2023-04-03T07:58:08;7.65;;;4.13;;
68870;SDS011;55906;52.278;6.808;2023-04-03T08:00:35;9.53;;;3.97;;
68870;SDS011;55906;52.278;6.808;2023-04-03T08:03:02;7.13;;;3.53;;
68870;SDS011;55906;52.278;6.808;2023-04-03T08:05:30;6.03;;;3.72;;
68870;SDS011;55906;52.278;6.808;2023-04-03T08:07:58;5.28;;;3.42;;
68870;SDS011;55906;52.278;6.808;2023-04-03T08:10:24;6.43;;;3.73;;
68870;SDS011;55906;52.278;6.808;2023-04-03T08:12:51;3.97;;;3.03;;
68870;SDS011;55906;52.278;6.808;2023-04-03T08:15:17;5.90;;;4.03;;
68870;SDS011;55906;52.278;6.808;2023-04-03T08:17:44;3.75;;;2.78;;
68870;SDS011;55906;52.278;6.808;2023-04-03T08:20:11;4.82;;;3.22;;
68870;SDS011;55906;52.278;6.808;2023-04-03T08:22:38;4.30;;;3.33;;
68870;SDS011;55906;52.278;6.808;2023-04-03T08:25:08;3.90;;;2.80;;
68870;SDS011;55906;52.278;6.808;2023-04-03T08:27:35;4.32;;;3.22;;
68870;SDS011;55906;52.278;6.808;2023-04-03T08:30:03;4.78;;;2.95;;
68870;SDS011;55906;52.278;6.808;2023-04-03T08:32:30;4.35;;;2.88;;
68870;SDS011;55906;52.278;6.808;2023-04-03T08:34:56;5.27;;;2.87;;
68870;SDS011;55906;52.278;6.808;2023-04-03T08:37:23;4.82;;;2.53;;
68870;SDS011;55906;52.278;6.808;2023-04-03T08:39:50;4.97;;;3.17;;
68870;SDS011;55906;52.278;6.808;2023-04-03T08:42:19;5.55;;;3.03;;
68870;SDS011;55906;52.278;6.808;2023-04-03T08:45:01;8.25;;;2.97;;
68870;SDS011;55906;52.278;6.808;2023-04-03T08:47:36;6.33;;;2.70;;
68870;SDS011;55906;52.278;6.808;2023-04-03T08:50:06;6.32;;;3.15;;
68870;SDS011;55906;52.278;6.808;2023-04-03T08:52:38;7.85;;;2.58;;
68870;SDS011;55906;52.278;6.808;2023-04-03T08:55:12;3.60;;;2.05;;
68870;SDS011;55906;52.278;6.808;2023-04-03T08:57:48;3.90;;;1.90;;
68870;SDS011;55906;52.278;6.808;2023-04-03T09:00:23;3.83;;;1.83;;
68870;SDS011;55906;52.278;6.808;2023-04-03T09:02:54;4.35;;;1.50;;
68870;SDS011;55906;52.278;6.808;2023-04-03T09:05:28;3.80;;;2.00;;
68870;SDS011;55906;52.278;6.808;2023-04-03T09:08:04;4.13;;;2.10;;
68870;SDS011;55906;52.278;6.808;2023-04-03T09:10:37;4.30;;;1.73;;
68870;SDS011;55906;52.278;6.808;2023-04-03T09:13:08;3.70;;;1.70;;
68870;SDS011;55906;52.278;6.808;2023-04-03T09:15:39;4.47;;;1.63;;
68870;SDS011;55906;52.278;6.808;2023-04-03T09:18:10;5.40;;;1.55;;
68870;SDS011;55906;52.278;6.808;2023-04-03T09:20:43;5.18;;;1.80;;
68870;SDS011;55906;52.278;6.808;2023-04-03T09:23:19;3.63;;;1.80;;
68870;SDS011;55906;52.278;6.808;2023-04-03T09:25:51;6.47;;;2.47;;
68870;SDS011;55906;52.278;6.808;2023-04-03T09:28:24;3.58;;;1.85;;
68870;SDS011;55906;52.278;6.808;2023-04-03T09:30:51;5.18;;;2.22;;
68870;SDS011;55906;52.278;6.808;2023-04-03T09:33:17;4.75;;;2.30;;
68870;SDS011;55906;52.278;6.808;2023-04-03T09:35:46;5.18;;;2.75;;
68870;SDS011;55906;52.278;6.808;2023-04-03T09:38:16;4.47;;;2.20;;
68870;SDS011;55906;52.278;6.808;2023-04-03T09:40:45;5.15;;;2.10;;
68870;SDS011;55906;52.278;6.808;2023-04-03T09:43:28;4.38;;;1.95;;
68870;SDS011;55906;52.278;6.808;2023-04-03T09:46:15;4.63;;;2.00;;
68870;SDS011;55906;52.278;6.808;2023-04-03T09:48:49;4.32;;;2.03;;
68870;SDS011;55906;52.278;6.808;2023-04-03T09:51:17;7.50;;;2.13;;
68870;SDS011;55906;52.278;6.808;2023-04-03T09:53:44;5.60;;;2.08;;
68870;SDS011;55906;52.278;6.808;2023-04-03T09:56:22;4.03;;;1.95;;
68870;SDS011;55906;52.278;6.808;2023-04-03T09:59:02;4.47;;;1.75;;
68870;SDS011;55906;52.278;6.808;2023-04-03T10:01:34;5.25;;;1.80;;
68870;SDS011;55906;52.278;6.808;2023-04-03T10:04:03;4.03;;;1.60;;
68870;SDS011;55906;52.278;6.808;2023-04-03T10:06:36;3.80;;;1.67;;
68870;SDS011;55906;52.278;6.808;2023-04-03T10:09:12;3.75;;;1.80;;
68870;SDS011;55906;52.278;6.808;2023-04-03T10:11:50;4.60;;;1.90;;
68870;SDS011;55906;52.278;6.808;2023-04-03T10:14:26;4.35;;;1.80;;
68870;SDS011;55906;52.278;6.808;2023-04-03T10:16:55;3.33;;;1.40;;
68870;SDS011;55906;52.278;6.808;2023-04-03T10:19:33;3.90;;;1.60;;
68870;SDS011;55906;52.278;6.808;2023-04-03T10:22:03;4.95;;;1.67;;
68870;SDS011;55906;52.278;6.808;2023-04-03T10:24:39;3.95;;;1.48;;
68870;SDS011;55906;52.278;6.808;2023-04-03T10:27:15;5.82;;;1.80;;
68870;SDS011;55906;52.278;6.808;2023-04-03T10:29:51;3.40;;;1.53;;
68870;SDS011;55906;52.278;6.808;2023-04-03T10:32:29;5.07;;;1.60;;
68870;SDS011;55906;52.278;6.808;2023-04-03T10:35:10;4.95;;;1.77;;
68870;SDS011;55906;52.278;6.808;2023-04-03T10:37:46;4.55;;;1.33;;
68870;SDS011;55906;52.278;6.808;2023-04-03T10:40:30;3.63;;;1.50;;
68870;SDS011;55906;52.278;6.808;2023-04-03T10:43:02;3.50;;;1.57;;
68870;SDS011;55906;52.278;6.808;2023-04-03T10:45:44;4.18;;;1.67;;
68870;SDS011;55906;52.278;6.808;2023-04-03T10:48:18;4.72;;;1.73;;
68870;SDS011;55906;52.278;6.808;2023-04-03T10:50:54;5.13;;;1.63;;
68870;SDS011;55906;52.278;6.808;2023-04-03T10:53:28;4.53;;;1.60;;
68870;SDS011;55906;52.278;6.808;2023-04-03T10:56:01;3.70;;;1.70;;
68870;SDS011;55906;52.278;6.808;2023-04-03T10:58:38;3.90;;;1.60;;
68870;SDS011;55906;52.278;6.808;2023-04-03T11:01:11;4.85;;;1.50;;
68870;SDS011;55906;52.278;6.808;2023-04-03T11:03:43;5.40;;;1.70;;
68870;SDS011;55906;52.278;6.808;2023-04-03T11:06:13;5.07;;;1.70;;
68870;SDS011;55906;52.278;6.808;2023-04-03T11:08:43;6.80;;;1.80;;
68870;SDS011;55906;52.278;6.808;2023-04-03T11:11:14;5.15;;;1.60;;
68870;SDS011;55906;52.278;6.808;2023-04-03T11:13:43;5.78;;;1.70;;
68870;SDS011;55906;52.278;6.808;2023-04-03T11:16:18;4.75;;;1.63;;
68870;SDS011;55906;52.278;6.808;2023-04-03T11:18:49;4.10;;;1.60;;
68870;SDS011;55906;52.278;6.808;2023-04-03T11:21:21;4.20;;;1.57;;
68870;SDS011;55906;52.278;6.808;2023-04-03T11:23:54;3.22;;;1.55;;
68870;SDS011;55906;52.278;6.808;2023-04-03T11:26:24;4.22;;;1.73;;
68870;SDS011;55906;52.278;6.808;2023-04-03T11:28:56;3.75;;;1.50;;
68870;SDS011;55906;52.278;6.808;2023-04-03T11:31:36;5.70;;;2.60;;
68870;SDS011;55906;52.278;6.808;2023-04-03T11:34:16;12.20;;;7.40;;
68870;SDS011;55906;52.278;6.808;2023-04-03T11:36:50;16.27;;;9.15;;
68870;SDS011;55906;52.278;6.808;2023-04-03T11:39:21;8.38;;;4.10;;
68870;SDS011;55906;52.278;6.808;2023-04-03T11:41:51;5.85;;;1.95;;
68870;SDS011;55906;52.278;6.808;2023-04-03T11:44:28;22.48;;;9.68;;
68870;SDS011;55906;52.278;6.808;2023-04-03T11:47:00;7.50;;;3.33;;
68870;SDS011;55906;52.278;6.808;2023-04-03T11:58:22;7.15;;;3.30;;
68870;SDS011;55906;52.278;6.808;2023-04-03T12:00:57;5.80;;;2.10;;
68870;SDS011;55906;52.278;6.808;2023-04-03T12:06:47;3.60;;;1.70;;
68870;SDS011;55906;52.278;6.808;2023-04-03T12:09:35;4.45;;;1.50;;
68870;SDS011;55906;52.278;6.808;2023-04-03T12:12:27;4.30;;;1.75;;
68870;SDS011;55906;52.278;6.808;2023-04-03T12:15:11;4.37;;;1.50;;
68870;SDS011;55906;52.278;6.808;2023-04-03T12:17:49;4.28;;;1.58;;
68870;SDS011;55906;52.278;6.808;2023-04-03T12:26:24;5.32;;;1.50;;
68870;SDS011;55906;52.278;6.808;2023-04-03T12:28:53;6.03;;;2.00;;
68870;SDS011;55906;52.278;6.808;2023-04-03T12:31:22;4.53;;;1.60;;
68870;SDS011;55906;52.278;6.808;2023-04-03T12:36:47;4.95;;;1.60;;
68870;SDS011;55906;52.278;6.808;2023-04-03T12:39:25;3.90;;;1.60;;
68870;SDS011;55906;52.278;6.808;2023-04-03T12:42:31;8.53;;;2.47;;
68870;SDS011;55906;52.278;6.808;2023-04-03T12:45:09;5.50;;;1.65;;
68870;SDS011;55906;52.278;6.808;2023-04-03T12:47:44;5.40;;;1.60;;
68870;SDS011;55906;52.278;6.808;2023-04-03T12:50:16;4.72;;;1.55;;
68870;SDS011;55906;52.278;6.808;2023-04-03T12:52:50;4.35;;;1.67;;
68870;SDS011;55906;52.278;6.808;2023-04-03T12:55:23;5.00;;;1.67;;
68870;SDS011;55906;52.278;6.808;2023-04-03T12:57:49;4.47;;;1.60;;
68870;SDS011;55906;52.278;6.808;2023-04-03T13:00:30;4.75;;;1.67;;
68870;SDS011;55906;52.278;6.808;2023-04-03T13:02:59;5.13;;;1.42;;
68870;SDS011;55906;52.278;6.808;2023-04-03T13:05:27;4.35;;;1.60;;
68870;SDS011;55906;52.278;6.808;2023-04-03T13:07:58;5.50;;;1.60;;
68870;SDS011;55906;52.278;6.808;2023-04-03T13:10:29;5.30;;;1.60;;
68870;SDS011;55906;52.278;6.808;2023-04-03T13:12:57;4.28;;;1.45;;
68870;SDS011;55906;52.278;6.808;2023-04-03T13:15:39;4.45;;;1.63;;
68870;SDS011;55906;52.278;6.808;2023-04-03T13:18:21;3.80;;;1.42;;
68870;SDS011;55906;52.278;6.808;2023-04-03T13:20:49;4.00;;;1.40;;
68870;SDS011;55906;52.278;6.808;2023-04-03T13:23:17;3.75;;;1.30;;
68870;SDS011;55906;52.278;6.808;2023-04-03T13:25:47;3.72;;;1.30;;
68870;SDS011;55906;52.278;6.808;2023-04-03T13:28:17;3.80;;;1.27;;
68870;SDS011;55906;52.278;6.808;2023-04-03T13:30:57;5.43;;;1.60;;
68870;SDS011;55906;52.278;6.808;2023-04-03T13:33:28;3.93;;;1.40;;
68870;SDS011;55906;52.278;6.808;2023-04-03T13:35:58;8.02;;;1.60;;
68870;SDS011;55906;52.278;6.808;2023-04-03T13:38:29;3.90;;;1.40;;
68870;SDS011;55906;52.278;6.808;2023-04-03T13:41:01;4.15;;;1.45;;
68870;SDS011;55906;52.278;6.808;2023-04-03T13:43:31;3.22;;;1.38;;
68870;SDS011;55906;52.278;6.808;2023-04-03T13:46:00;4.23;;;1.30;;
68870;SDS011;55906;52.278;6.808;2023-04-03T13:48:47;4.20;;;1.35;;
68870;SDS011;55906;52.278;6.808;2023-04-03T13:51:18;4.22;;;1.48;;
68870;SDS011;55906;52.278;6.808;2023-04-03T13:53:49;4.78;;;1.50;;
68870;SDS011;55906;52.278;6.808;2023-04-03T13:56:25;4.35;;;1.35;;
68870;SDS011;55906;52.278;6.808;2023-04-03T13:58:59;3.43;;;1.23;;
68870;SDS011;55906;52.278;6.808;2023-04-03T14:01:40;4.85;;;1.55;;
68870;SDS011;55906;52.278;6.808;2023-04-03T14:04:11;4.80;;;1.38;;
68870;SDS011;55906;52.278;6.808;2023-04-03T14:06:41;3.75;;;1.30;;
68870;SDS011;55906;52.278;6.808;2023-04-03T14:09:07;4.45;;;1.40;;
68870;SDS011;55906;52.278;6.808;2023-04-03T14:11:35;5.40;;;1.50;;
68870;SDS011;55906;52.278;6.808;2023-04-03T14:14:05;3.92;;;1.40;;
68870;SDS011;55906;52.278;6.808;2023-04-03T14:16:38;4.18;;;1.50;;
68870;SDS011;55906;52.278;6.808;2023-04-03T14:19:09;4.78;;;1.30;;
68870;SDS011;55906;52.278;6.808;2023-04-03T14:21:43;3.60;;;1.40;;
68870;SDS011;55906;52.278;6.808;2023-04-03T14:24:10;4.47;;;1.10;;
68870;SDS011;55906;52.278;6.808;2023-04-03T14:26:38;4.57;;;1.10;;
68870;SDS011;55906;52.278;6.808;2023-04-03T14:29:06;4.50;;;1.33;;
68870;SDS011;55906;52.278;6.808;2023-04-03T14:31:32;3.92;;;1.10;;
68870;SDS011;55906;52.278;6.808;2023-04-03T14:33:59;4.30;;;1.27;;
68870;SDS011;55906;52.278;6.808;2023-04-03T14:36:27;4.97;;;1.20;;
68870;SDS011;55906;52.278;6.808;2023-04-03T14:38:55;4.55;;;1.40;;
68870;SDS011;55906;52.278;6.808;2023-04-03T14:41:23;4.47;;;1.30;;
68870;SDS011;55906;52.278;6.808;2023-04-03T14:43:53;3.75;;;1.25;;
68870;SDS011;55906;52.278;6.808;2023-04-03T14:46:21;4.22;;;1.20;;
68870;SDS011;55906;52.278;6.808;2023-04-03T14:48:55;5.13;;;1.40;;
68870;SDS011;55906;52.278;6.808;2023-04-03T14:51:22;3.30;;;1.20;;
68870;SDS011;55906;52.278;6.808;2023-04-03T14:53:49;3.45;;;1.10;;
68870;SDS011;55906;52.278;6.808;2023-04-03T14:56:17;4.22;;;1.30;;
68870;SDS011;55906;52.278;6.808;2023-04-03T14:58:48;4.18;;;1.20;;
68870;SDS011;55906;52.278;6.808;2023-04-03T15:01:17;4.60;;;1.00;;
68870;SDS011;55906;52.278;6.808;2023-04-03T15:03:43;3.60;;;1.23;;
68870;SDS011;55906;52.278;6.808;2023-04-03T15:06:10;4.43;;;1.17;;
68870;SDS011;55906;52.278;6.808;2023-04-03T15:08:38;4.10;;;1.40;;
68870;SDS011;55906;52.278;6.808;2023-04-03T15:11:06;4.32;;;1.20;;
68870;SDS011;55906;52.278;6.808;2023-04-03T15:13:33;4.60;;;1.13;;
68870;SDS011;55906;52.278;6.808;2023-04-03T15:16:00;3.33;;;0.95;;
68870;SDS011;55906;52.278;6.808;2023-04-03T15:18:28;3.38;;;1.00;;
68870;SDS011;55906;52.278;6.808;2023-04-03T15:20:58;4.20;;;1.10;;
68870;SDS011;55906;52.278;6.808;2023-04-03T15:23:25;4.15;;;1.13;;
68870;SDS011;55906;52.278;6.808;2023-04-03T15:25:53;5.57;;;1.40;;
68870;SDS011;55906;52.278;6.808;2023-04-03T15:28:22;3.58;;;1.30;;